createdAt,value
2018-03-07T00:02:24.719Z,96123
2018-03-07T00:04:52.869Z,96128
2018-03-07T00:07:21.018Z,96125
2018-03-07T00:09:49.222Z,96131
2018-03-07T00:12:17.361Z,96125
2018-03-07T00:14:45.515Z,96128
2018-03-07T00:17:15.586Z,96132
2018-03-07T00:19:43.770Z,96134
2018-03-07T00:22:14.805Z,96128
2018-03-07T00:24:42.943Z,96125
2018-03-07T00:27:21.118Z,96128
2018-03-07T00:29:49.250Z,96128
2018-03-07T00:32:17.408Z,96124
2018-03-07T00:34:46.323Z,96129
2018-03-07T00:37:21.805Z,96128
2018-03-07T00:39:49.945Z,96129
2018-03-07T00:42:18.331Z,96122
2018-03-07T00:44:46.466Z,96126
2018-03-07T00:47:23.307Z,96123
2018-03-07T00:49:51.451Z,96127
2018-03-07T00:52:20.001Z,96122
2018-03-07T00:54:48.902Z,96126
2018-03-07T00:57:17.063Z,96133
2018-03-07T00:59:45.970Z,96128
2018-03-07T01:02:14.128Z,96127
2018-03-07T01:04:43.110Z,96121
2018-03-07T01:07:19.974Z,96122
2018-03-07T01:09:48.150Z,96115
2018-03-07T01:12:16.393Z,96125
2018-03-07T01:14:44.582Z,96123
2018-03-07T01:17:20.002Z,96127
2018-03-07T01:19:48.195Z,96126
2018-03-07T01:22:16.662Z,96135
2018-03-07T01:24:45.670Z,96130
2018-03-07T01:27:17.950Z,96128
2018-03-07T01:29:46.272Z,96128
2018-03-07T01:32:14.443Z,96129
2018-03-07T01:34:42.597Z,96120
2018-03-07T01:39:52.493Z,96129
2018-03-07T01:42:20.634Z,96130
2018-03-07T01:44:48.802Z,96130
2018-03-07T01:47:16.929Z,96121
2018-03-07T01:49:45.078Z,96113
2018-03-07T01:52:13.229Z,96114
2018-03-07T01:54:42.164Z,96118
2018-03-07T01:57:10.313Z,96108
2018-03-07T01:59:38.474Z,96109
2018-03-07T02:02:07.396Z,96116
2018-03-07T02:04:37.134Z,96118
2018-03-07T02:07:05.303Z,96108
2018-03-07T02:09:33.462Z,96109
2018-03-07T02:12:01.598Z,96116
2018-03-07T02:14:30.502Z,96110
2018-03-07T02:17:05.982Z,96121
2018-03-07T02:19:34.117Z,96110
2018-03-07T02:22:02.313Z,96114
2018-03-07T02:24:30.449Z,96116
2018-03-07T02:27:04.818Z,96113
2018-03-07T02:29:32.960Z,96111
2018-03-07T02:32:01.123Z,96116
2018-03-07T02:34:29.265Z,96120
2018-03-07T02:37:09.084Z,96119
2018-03-07T02:39:37.225Z,96115
2018-03-07T02:42:05.378Z,96123
2018-03-07T02:44:34.313Z,96120
2018-03-07T02:47:06.078Z,96122
2018-03-07T02:49:34.213Z,96120
2018-03-07T02:52:02.365Z,96126
2018-03-07T02:54:31.270Z,96110
2018-03-07T02:57:01.437Z,96123
2018-03-07T02:59:29.585Z,96115
2018-03-07T03:01:57.753Z,96118
2018-03-07T03:04:25.890Z,96121
2018-03-07T03:06:57.922Z,96132
2018-03-07T03:09:26.061Z,96120
2018-03-07T03:11:54.218Z,96120
2018-03-07T03:14:23.122Z,96120
2018-03-07T03:16:51.282Z,96133
2018-03-07T03:19:20.186Z,96139
2018-03-07T03:21:48.341Z,96138
2018-03-07T03:24:17.238Z,96135
2018-03-07T03:26:51.500Z,96141
2018-03-07T03:29:19.642Z,96139
2018-03-07T03:31:47.792Z,96142
2018-03-07T03:34:16.690Z,96145
2018-03-07T03:36:53.310Z,96141
2018-03-07T03:39:21.478Z,96147
2018-03-07T03:41:49.729Z,96137
2018-03-07T03:44:17.874Z,96145
2018-03-07T03:46:54.198Z,96152
2018-03-07T03:49:22.342Z,96156
2018-03-07T03:51:50.490Z,96153
2018-03-07T03:54:19.394Z,96147
2018-03-07T03:56:55.182Z,96154
2018-03-07T03:59:23.333Z,96155
2018-03-07T04:01:51.481Z,96156
2018-03-07T04:04:20.378Z,96159
2018-03-07T04:06:56.066Z,96159
2018-03-07T04:09:24.206Z,96169
2018-03-07T04:11:52.374Z,96166
2018-03-07T04:14:20.514Z,96166
2018-03-07T04:16:48.717Z,96160
2018-03-07T04:19:16.858Z,96168
2018-03-07T04:21:45.018Z,96167
2018-03-07T04:24:13.171Z,96170
2018-03-07T04:26:50.569Z,96173
2018-03-07T04:29:18.713Z,96179
2018-03-07T04:31:46.870Z,96183
2018-03-07T04:34:15.003Z,96186
2018-03-07T04:36:44.081Z,96184
2018-03-07T04:39:12.214Z,96187
2018-03-07T04:41:40.377Z,96188
2018-03-07T04:44:09.277Z,96183
2018-03-07T04:46:38.424Z,96182
2018-03-07T04:49:06.566Z,96187
2018-03-07T04:51:34.713Z,96190
2018-03-07T04:54:03.635Z,96191
2018-03-07T04:56:55.768Z,96200
2018-03-07T04:59:23.905Z,96191
2018-03-07T05:01:52.806Z,96189
2018-03-07T05:04:20.957Z,96194
2018-03-07T05:06:49.093Z,96194
2018-03-07T05:09:17.247Z,96196
2018-03-07T05:11:45.378Z,96203
2018-03-07T05:14:14.301Z,96192
2018-03-07T05:16:45.969Z,96203
2018-03-07T05:19:14.131Z,96206
2018-03-07T05:21:42.274Z,96206
2018-03-07T05:24:11.217Z,96205
2018-03-07T05:26:42.755Z,96206
2018-03-07T05:29:10.909Z,96195
2018-03-07T05:31:39.056Z,96213
2018-03-07T05:34:07.210Z,96217
2018-03-07T05:36:35.361Z,96218
2018-03-07T05:39:03.563Z,96220
2018-03-07T05:41:31.738Z,96212
2018-03-07T05:43:59.978Z,96216
2018-03-07T05:46:42.364Z,96215
2018-03-07T05:49:10.529Z,96223
2018-03-07T05:51:38.678Z,96223
2018-03-07T05:54:06.829Z,96230
2018-03-07T05:56:36.970Z,96232
2018-03-07T05:59:05.174Z,96232
2018-03-07T06:01:33.414Z,96238
2018-03-07T06:04:02.383Z,96237
2018-03-07T06:06:33.609Z,96240
2018-03-07T06:09:01.754Z,96241
2018-03-07T06:11:29.981Z,96241
2018-03-07T06:13:58.121Z,96245
2018-03-07T06:16:29.385Z,96248
2018-03-07T06:18:57.526Z,96256
2018-03-07T06:21:25.689Z,96250
2018-03-07T06:23:54.589Z,96257
2018-03-07T06:26:22.750Z,96269
2018-03-07T06:28:50.890Z,96262
2018-03-07T06:31:19.048Z,96274
2018-03-07T06:33:47.185Z,96271
2018-03-07T06:36:15.422Z,96281
2018-03-07T06:38:43.574Z,96289
2018-03-07T06:41:11.770Z,96290
2018-03-07T06:43:39.906Z,96297
2018-03-07T06:46:15.185Z,96288
2018-03-07T06:48:43.318Z,96293
2018-03-07T06:51:11.494Z,96292
2018-03-07T06:53:39.626Z,96295
2018-03-07T06:56:09.469Z,96304
2018-03-07T06:58:37.626Z,96302
2018-03-07T07:01:05.770Z,96302
2018-03-07T07:03:34.699Z,96306
2018-03-07T07:06:02.846Z,96316
2018-03-07T07:08:31.802Z,96316
2018-03-07T07:10:59.967Z,96318
2018-03-07T07:13:28.175Z,96312
2018-03-07T07:15:59.190Z,96331
2018-03-07T07:18:27.439Z,96340
2018-03-07T07:20:55.690Z,96355
2018-03-07T07:23:23.887Z,96363
2018-03-07T07:25:55.739Z,96366
2018-03-07T07:28:23.897Z,96374
2018-03-07T07:30:52.038Z,96374
2018-03-07T07:33:20.198Z,96377
2018-03-07T07:35:55.574Z,96387
2018-03-07T07:38:24.485Z,96389
2018-03-07T07:40:52.626Z,96384
2018-03-07T07:43:21.577Z,96384
2018-03-07T07:45:50.648Z,96383
2018-03-07T07:48:18.817Z,96391
2018-03-07T07:50:46.976Z,96381
2018-03-07T07:53:15.898Z,96393
2018-03-07T07:55:44.981Z,96399
2018-03-07T07:58:13.143Z,96391
2018-03-07T08:00:41.327Z,96398
2018-03-07T08:03:10.234Z,96399
2018-03-07T08:05:42.493Z,96401
2018-03-07T08:08:10.662Z,96406
2018-03-07T08:10:38.825Z,96410
2018-03-07T08:13:06.962Z,96415
2018-03-07T08:15:45.458Z,96405
2018-03-07T08:18:13.605Z,96417
2018-03-07T08:20:41.776Z,96414
2018-03-07T08:23:09.910Z,96413
2018-03-07T08:25:42.145Z,96420
2018-03-07T08:28:10.282Z,96431
2018-03-07T08:30:38.439Z,96427
2018-03-07T08:33:06.588Z,96421
2018-03-07T08:35:38.918Z,96414
2018-03-07T08:38:07.054Z,96424
2018-03-07T08:40:35.213Z,96426
2018-03-07T08:43:04.122Z,96428
2018-03-07T08:45:46.535Z,96438
2018-03-07T08:48:14.672Z,96435
2018-03-07T08:50:42.830Z,96437
2018-03-07T08:53:10.984Z,96441
2018-03-07T08:55:52.350Z,96423
2018-03-07T08:58:20.488Z,96440
2018-03-07T09:00:49.442Z,96445
2018-03-07T09:03:17.598Z,96441
2018-03-07T09:05:45.762Z,96449
2018-03-07T09:08:13.898Z,96447
2018-03-07T09:10:42.820Z,96448
2018-03-07T09:13:10.964Z,96457
2018-03-07T09:15:40.117Z,96449
2018-03-07T09:18:08.283Z,96453
2018-03-07T09:20:36.453Z,96454
2018-03-07T09:23:04.584Z,96459
2018-03-07T09:25:51.718Z,96473
2018-03-07T09:28:19.909Z,96467
2018-03-07T09:30:48.065Z,96473
2018-03-07T09:33:16.206Z,96480
2018-03-07T09:35:57.141Z,96480
2018-03-07T09:38:25.277Z,96483
2018-03-07T09:40:53.442Z,96475
2018-03-07T09:43:22.334Z,96478
2018-03-07T09:45:50.490Z,96477
2018-03-07T09:48:18.619Z,96489
2018-03-07T09:50:46.766Z,96487
2018-03-07T09:53:14.897Z,96499
2018-03-07T09:55:45.019Z,96493
2018-03-07T09:58:13.983Z,96499
2018-03-07T10:00:42.199Z,96506
2018-03-07T10:03:11.182Z,96508
2018-03-07T10:05:47.106Z,96506
2018-03-07T10:08:15.351Z,96507
2018-03-07T10:10:43.547Z,96519
2018-03-07T10:13:11.764Z,96516
2018-03-07T10:15:54.730Z,96518
2018-03-07T10:18:23.704Z,96529
2018-03-07T10:20:51.909Z,96524
2018-03-07T10:23:20.167Z,96521
2018-03-07T10:25:55.911Z,96523
2018-03-07T10:28:24.079Z,96518
2018-03-07T10:30:52.270Z,96510
2018-03-07T10:33:26.043Z,96517
2018-03-07T10:35:55.882Z,96521
2018-03-07T10:38:24.030Z,96529
2018-03-07T10:40:52.926Z,96522
2018-03-07T10:43:21.078Z,96540
2018-03-07T10:45:57.086Z,96547
2018-03-07T10:48:25.238Z,96538
2018-03-07T10:50:53.377Z,96536
2018-03-07T10:53:21.534Z,96546
2018-03-07T10:55:49.667Z,96539
2018-03-07T10:58:17.818Z,96556
2018-03-07T11:00:45.951Z,96550
2018-03-07T11:03:14.105Z,96551
2018-03-07T11:05:47.783Z,96543
2018-03-07T11:08:15.941Z,96540
2018-03-07T11:10:44.078Z,96543
2018-03-07T11:13:12.232Z,96545
2018-03-07T11:15:42.324Z,96550
2018-03-07T11:18:10.469Z,96545
2018-03-07T11:20:38.617Z,96538
2018-03-07T11:23:06.779Z,96545
2018-03-07T11:25:42.406Z,96541
2018-03-07T11:28:10.565Z,96538
2018-03-07T11:30:38.707Z,96533
2018-03-07T11:33:06.865Z,96546
2018-03-07T11:35:36.010Z,96553
2018-03-07T11:38:04.172Z,96560
2018-03-07T11:40:32.309Z,96543
2018-03-07T11:43:00.469Z,96557
2018-03-07T11:45:36.383Z,96560
2018-03-07T11:48:04.546Z,96569
2018-03-07T11:50:32.682Z,96562
2018-03-07T11:53:00.838Z,96556
2018-03-07T11:55:32.246Z,96562
2018-03-07T11:58:00.430Z,96533
2018-03-07T12:00:28.580Z,96569
2018-03-07T12:02:56.737Z,96560
2018-03-07T12:05:30.987Z,96582
2018-03-07T12:07:59.134Z,96569
2018-03-07T12:10:28.031Z,96581
2018-03-07T12:12:56.191Z,96581
2018-03-07T12:15:24.349Z,96574
2018-03-07T12:17:52.526Z,96576
2018-03-07T12:20:21.434Z,96572
2018-03-07T12:22:50.354Z,96571
2018-03-07T12:25:21.191Z,96577
2018-03-07T12:27:49.374Z,96572
2018-03-07T12:30:17.519Z,96569
2018-03-07T12:32:45.675Z,96582
2018-03-07T12:35:14.610Z,96587
2018-03-07T12:37:42.757Z,96578
2018-03-07T12:40:10.906Z,96575
2018-03-07T12:42:39.820Z,96575
2018-03-07T12:45:07.954Z,96581
2018-03-07T12:47:36.113Z,96580
2018-03-07T12:50:04.247Z,96580
2018-03-07T12:52:33.354Z,96569
2018-03-07T12:55:01.500Z,96579
2018-03-07T12:57:29.674Z,96585
2018-03-07T12:59:57.806Z,96577
2018-03-07T13:02:25.957Z,96572
2018-03-07T13:04:54.094Z,96588
2018-03-07T13:07:26.298Z,96584
2018-03-07T13:09:54.442Z,96584
2018-03-07T13:12:22.602Z,96581
2018-03-07T13:14:51.503Z,96585
2018-03-07T13:17:19.663Z,96589
2018-03-07T13:19:47.810Z,96598
2018-03-07T13:22:15.988Z,96605
2018-03-07T13:24:44.122Z,96586
2018-03-07T13:27:14.314Z,96609
2018-03-07T13:29:42.490Z,96608
2018-03-07T13:32:10.667Z,96607
2018-03-07T13:34:38.806Z,96609
2018-03-07T13:37:12.093Z,96605
2018-03-07T13:39:40.222Z,96606
2018-03-07T13:42:08.374Z,96613
2018-03-07T13:44:36.580Z,96609
2018-03-07T13:47:12.016Z,96607
2018-03-07T13:49:40.146Z,96608
2018-03-07T13:52:09.066Z,96606
2018-03-07T13:54:37.202Z,96612
2018-03-07T13:57:09.753Z,96618
2018-03-07T13:59:37.885Z,96620
2018-03-07T14:02:06.018Z,96623
2018-03-07T14:04:34.171Z,96624
2018-03-07T14:07:05.899Z,96616
2018-03-07T14:09:34.042Z,96612
2018-03-07T14:12:02.170Z,96614
2018-03-07T14:14:30.335Z,96622
2018-03-07T14:16:58.466Z,96625
2018-03-07T14:19:26.618Z,96622
2018-03-07T14:21:55.537Z,96627
2018-03-07T14:24:23.702Z,96624
2018-03-07T14:26:51.843Z,96633
2018-03-07T14:29:20.000Z,96633
2018-03-07T14:31:48.121Z,96639
2018-03-07T14:34:16.270Z,96642
2018-03-07T14:36:44.397Z,96637
2018-03-07T14:39:12.559Z,96646
2018-03-07T14:41:40.686Z,96643
2018-03-07T14:44:08.839Z,96638
2018-03-07T14:46:38.942Z,96640
2018-03-07T14:49:07.095Z,96645
2018-03-07T14:51:35.241Z,96655
2018-03-07T14:54:04.155Z,96648
2018-03-07T14:56:41.975Z,96645
2018-03-07T14:59:10.131Z,96652
2018-03-07T15:01:39.027Z,96645
2018-03-07T15:04:07.186Z,96664
2018-03-07T15:06:35.362Z,96642
2018-03-07T15:09:03.568Z,96652
2018-03-07T15:11:31.716Z,96641
2018-03-07T15:13:59.867Z,96644
2018-03-07T15:16:31.571Z,96651
2018-03-07T15:18:59.723Z,96649
2018-03-07T15:21:27.865Z,96650
2018-03-07T15:23:56.763Z,96659
2018-03-07T15:26:28.559Z,96662
2018-03-07T15:28:56.685Z,96653
2018-03-07T15:31:25.603Z,96656
2018-03-07T15:33:53.730Z,96659
2018-03-07T15:36:23.870Z,96653
2018-03-07T15:38:52.011Z,96666
2018-03-07T15:41:20.168Z,96666
2018-03-07T15:43:48.297Z,96659
2018-03-07T15:46:31.830Z,96659
2018-03-07T15:48:59.959Z,96655
2018-03-07T15:51:28.106Z,96662
2018-03-07T15:53:56.245Z,96658
2018-03-07T15:56:30.102Z,96659
2018-03-07T15:58:58.266Z,96661
2018-03-07T16:01:26.474Z,96643
2018-03-07T16:03:54.606Z,96642
2018-03-07T16:06:57.622Z,96641
2018-03-07T16:09:25.763Z,96660
2018-03-07T16:11:53.922Z,96675
2018-03-07T16:14:22.057Z,96673
2018-03-07T16:16:51.220Z,96668
2018-03-07T16:19:19.378Z,96676
2018-03-07T16:21:47.526Z,96670
2018-03-07T16:24:15.654Z,96672
2018-03-07T16:26:49.745Z,96670
2018-03-07T16:29:17.876Z,96663
2018-03-07T16:31:46.029Z,96674
2018-03-07T16:34:14.162Z,96680
2018-03-07T16:36:42.313Z,96681
2018-03-07T16:39:10.447Z,96686
2018-03-07T16:41:39.431Z,96681
2018-03-07T16:44:07.558Z,96688
2018-03-07T16:46:42.962Z,96699
2018-03-07T16:49:11.862Z,96698
2018-03-07T16:51:40.821Z,96703
2018-03-07T16:54:08.976Z,96712
2018-03-07T16:56:37.146Z,96704
2018-03-07T16:59:05.299Z,96707
2018-03-07T17:01:33.429Z,96718
2018-03-07T17:04:02.359Z,96711
2018-03-07T17:06:34.141Z,96721
2018-03-07T17:09:02.312Z,96722
2018-03-07T17:11:30.446Z,96720
2018-03-07T17:13:59.414Z,96718
2018-03-07T17:16:30.934Z,96723
2018-03-07T17:18:59.081Z,96729
2018-03-07T17:21:27.232Z,96725
2018-03-07T17:23:56.146Z,96739
2018-03-07T17:26:25.314Z,96732
2018-03-07T17:28:54.267Z,96736
2018-03-07T17:31:22.390Z,96736
2018-03-07T17:33:50.549Z,96742
2018-03-07T17:36:19.471Z,96740
2018-03-07T17:38:47.630Z,96746
2018-03-07T17:41:15.753Z,96751
2018-03-07T17:43:43.879Z,96749
2018-03-07T17:46:17.844Z,96755
2018-03-07T17:48:46.015Z,96768
2018-03-07T17:51:14.214Z,96766
2018-03-07T17:53:43.117Z,96769
2018-03-07T17:56:12.036Z,96771
2018-03-07T17:58:40.165Z,96774
2018-03-07T18:01:09.128Z,96772
2018-03-07T18:03:37.262Z,96776
2018-03-07T18:06:10.271Z,96783
2018-03-07T18:08:38.407Z,96783
2018-03-07T18:11:06.590Z,96785
2018-03-07T18:13:34.747Z,96784
2018-03-07T18:16:20.659Z,96785
2018-03-07T18:18:48.794Z,96789
2018-03-07T18:21:17.755Z,96794
2018-03-07T18:23:45.990Z,96795
2018-03-07T18:26:24.983Z,96794
2018-03-07T18:28:53.214Z,96797
2018-03-07T18:31:21.358Z,96797
2018-03-07T18:33:49.493Z,96805
2018-03-07T18:36:21.863Z,96813
2018-03-07T18:38:49.997Z,96809
2018-03-07T18:41:18.146Z,96818
2018-03-07T18:43:46.288Z,96823
2018-03-07T18:46:14.478Z,96824
2018-03-07T18:48:43.382Z,96822
2018-03-07T18:51:12.294Z,96819
2018-03-07T18:53:40.423Z,96815
2018-03-07T18:56:20.946Z,96834
2018-03-07T18:58:49.078Z,96837
2018-03-07T19:01:18.001Z,96837
2018-03-07T19:03:46.170Z,96842
2018-03-07T19:06:27.867Z,96842
2018-03-07T19:08:55.999Z,96843
2018-03-07T19:11:24.909Z,96847
2018-03-07T19:13:53.046Z,96848
2018-03-07T19:16:21.185Z,96849
2018-03-07T19:18:49.340Z,96860
2018-03-07T19:21:17.466Z,96860
2018-03-07T19:23:45.614Z,96862
2018-03-07T19:26:21.125Z,96869
2018-03-07T19:28:49.356Z,96871
2018-03-07T19:31:17.511Z,96872
2018-03-07T19:33:45.727Z,96885
2018-03-07T19:36:15.949Z,96892
2018-03-07T19:38:44.954Z,96889
2018-03-07T19:41:13.172Z,96892
2018-03-07T19:43:41.360Z,96897
2018-03-07T19:46:31.527Z,96892
2018-03-07T19:48:59.754Z,96895
2018-03-07T19:51:28.711Z,96908
2018-03-07T19:53:56.874Z,96911
2018-03-07T19:56:25.938Z,96902
2018-03-07T19:58:54.088Z,96915
2018-03-07T20:01:22.983Z,96920
2018-03-07T20:03:51.133Z,96915
2018-03-07T20:06:19.322Z,96917
2018-03-07T20:08:47.478Z,96925
2018-03-07T20:11:15.616Z,96930
2018-03-07T20:13:43.775Z,96937
2018-03-07T20:16:20.239Z,96936
2018-03-07T20:18:48.474Z,96931
2018-03-07T20:21:17.382Z,96941
2018-03-07T20:23:45.526Z,96939
2018-03-07T20:26:13.674Z,96941
2018-03-07T20:28:41.810Z,96944
2018-03-07T20:31:09.965Z,96936
2018-03-07T20:33:38.867Z,96933
2018-03-07T20:36:09.024Z,96941
2018-03-07T20:38:37.150Z,96939
2018-03-07T20:41:06.071Z,96937
2018-03-07T20:43:35.039Z,96947
2018-03-07T20:46:17.562Z,96942
2018-03-07T20:48:45.710Z,96948
2018-03-07T20:51:13.873Z,96950
2018-03-07T20:53:42.786Z,96954
2018-03-07T20:56:15.093Z,96949
2018-03-07T20:58:43.219Z,96948
2018-03-07T21:01:11.379Z,96959
2018-03-07T21:03:41.109Z,96956
2018-03-07T21:06:14.953Z,96960
2018-03-07T21:08:43.102Z,96967
2018-03-07T21:11:11.255Z,96962
2018-03-07T21:13:40.146Z,96969
2018-03-07T21:16:13.585Z,96969
2018-03-07T21:18:50.242Z,96969
2018-03-07T21:21:18.386Z,96975
2018-03-07T21:23:47.282Z,96976
2018-03-07T21:26:23.708Z,96980
2018-03-07T21:28:51.834Z,96980
2018-03-07T21:31:19.963Z,96977
2018-03-07T21:33:48.115Z,96983
2018-03-07T21:36:20.665Z,96981
2018-03-07T21:38:48.821Z,96986
2018-03-07T21:41:17.715Z,96999
2018-03-07T21:43:45.882Z,96993
2018-03-07T21:46:31.754Z,97000
2018-03-07T21:49:00.691Z,97007
2018-03-07T21:51:28.825Z,96988
2018-03-07T21:53:57.734Z,97005
2018-03-07T21:56:30.118Z,97013
2018-03-07T21:58:58.274Z,97009
2018-03-07T22:01:26.418Z,97019
2018-03-07T22:03:54.575Z,97005
2018-03-07T22:06:22.713Z,97006
2018-03-07T22:08:50.869Z,97014
2018-03-07T22:11:18.999Z,97003
2018-03-07T22:13:47.151Z,97007
2018-03-07T22:16:19.010Z,97013
2018-03-07T22:18:47.164Z,97014
2018-03-07T22:21:15.306Z,97009
2018-03-07T22:23:43.459Z,97002
2018-03-07T22:26:11.589Z,97014
2018-03-07T22:28:39.742Z,97013
2018-03-07T22:31:07.872Z,97016
2018-03-07T22:33:36.035Z,97015
2018-03-07T22:36:08.678Z,97014
2018-03-07T22:38:36.832Z,97018
2018-03-07T22:41:04.993Z,97021
2018-03-07T22:43:33.894Z,97023
2018-03-07T22:46:06.823Z,97033
2018-03-07T22:48:34.954Z,97030
2018-03-07T22:51:03.106Z,97028
2018-03-07T22:53:32.039Z,97039
2018-03-07T22:56:14.543Z,97041
2018-03-07T22:58:42.683Z,97047
2018-03-07T23:01:11.606Z,97043
2018-03-07T23:03:39.738Z,97044
2018-03-07T23:06:07.942Z,97062
2018-03-07T23:08:36.071Z,97050
2018-03-07T23:11:04.243Z,97053
2018-03-07T23:13:32.378Z,97063
2018-03-07T23:16:08.577Z,97059
2018-03-07T23:18:36.701Z,97063
2018-03-07T23:21:04.862Z,97075
2018-03-07T23:23:33.751Z,97076
2018-03-07T23:26:03.594Z,97073
2018-03-07T23:28:31.778Z,97071
2018-03-07T23:30:59.914Z,97080
2018-03-07T23:33:28.070Z,97093
2018-03-07T23:36:04.469Z,97095
2018-03-07T23:38:32.698Z,97087
2018-03-07T23:41:00.845Z,97093
2018-03-07T23:43:29.104Z,97091
2018-03-07T23:45:57.323Z,97091
2018-03-07T23:48:25.545Z,97098
2018-03-07T23:50:53.718Z,97102
2018-03-07T23:53:21.874Z,97102
2018-03-07T23:55:50.001Z,97116
2018-03-07T23:58:18.166Z,97108
